Main page
METAR-TAF:

METAR-TAF

Airports :

Portorož, Slovenia

Portorož Airport

latitude: 45-31N, longitude: 013-34E, elevation: 95 m

Current weather observation

The report was made 28 minutes ago, at 22:00 UTC
Wind 5 kt from the East/Southeast
Temperature -1°C
Humidity 69%
Pressure 1027 hPa
Visibility 10 km or more

METAR: LJPZ 182200Z AUTO 12005KT 9999 NCD M01/M06 Q1027

Time: 23:28 (22:28 UTC)

Forecast

The report was made 2 hours and 28 minutes ago, at 20:00 UTC
Forecast valid from 18 at 21 UTC to 19 at 06 UTC
Wind 5 kt from the East/Southeast
Visibility 10 km or more
no clouds below 1500 m and no cumulonimbus

TAF: LJPZ 182000Z 1821/1906 12005KT CAVOK

Weather observations and forecasts of more than 4000 airports (METAR and TAF reports).

The available stations are represented by yellow and red dots on the map.

Hover mouse over dot to see the name of the station.

Then click to see weather observations and forecasts.

To change the map : click on the green buttons with a black cross to zoom in, on the green button with a dash to zoom out, or on the green arrows for adjacent maps.


METAR-TAF: